Time;durP1;ratioP1;P1;durP2;ratioP2;P2;SDS_P1;SDS_P2;PMS_P1;PMS_P2;Temp;Humidity;BMP_temperature;BMP_pressure;BME280_temperature;BME280_humidity;BME280_pressure;Samples;Min_cycle;Max_cycle;Signal;HPM_P1;HPM_P2
2024/01/11 00:01:19;;;;;;;22.40;6.28;;;18.30;44.80;;;;;;5127754;27;20067;-51
2024/01/11 00:03:46;;;;;;;23.48;6.47;;;18.30;44.80;;;;;;5121932;27;20167;-55
2024/01/11 00:06:12;;;;;;;43.17;6.55;;;18.20;44.80;;;;;;5110860;27;20508;-50
2024/01/11 00:08:39;;;;;;;28.80;6.80;;;18.10;45.40;;;;;;5128468;27;20579;-48
2024/01/11 00:11:05;;;;;;;52.28;8.13;;;18.00;45.80;;;;;;5128668;27;20068;-54
2024/01/11 00:13:32;;;;;;;24.17;6.65;;;17.90;46.30;;;;;;5110462;27;20129;-50
2024/01/11 00:15:58;;;;;;;39.92;6.07;;;17.90;46.30;;;;;;5128171;27;20078;-50
2024/01/11 00:18:25;;;;;;;21.70;6.80;;;17.80;46.60;;;;;;5128151;27;20075;-52
2024/01/11 00:20:51;;;;;;;25.88;6.63;;;17.70;47.30;;;;;;5125505;27;20101;-52
2024/01/11 00:23:18;;;;;;;19.33;6.22;;;17.60;47.90;;;;;;5127716;27;20125;-43
2024/01/11 00:25:44;;;;;;;18.17;4.50;;;17.60;48.90;;;;;;5128373;27;20094;-54
2024/01/11 00:28:11;;;;;;;27.30;4.90;;;17.50;49.80;;;;;;5128914;27;20122;-45
2024/01/11 00:30:37;;;;;;;22.38;4.55;;;17.40;50.40;;;;;;5124517;27;20071;-45
2024/01/11 00:33:04;;;;;;;21.65;4.53;;;17.40;51.20;;;;;;5124150;27;20076;-49
2024/01/11 00:35:30;;;;;;;22.05;4.80;;;17.30;51.80;;;;;;5128403;27;20534;-47
2024/01/11 00:37:57;;;;;;;22.55;4.75;;;17.20;52.20;;;;;;5128249;27;20564;-48
2024/01/11 00:40:23;;;;;;;28.65;4.60;;;17.10;52.50;;;;;;5126593;27;20064;-45
2024/01/11 00:42:50;;;;;;;14.52;3.97;;;17.00;52.70;;;;;;5127296;27;20502;-54
2024/01/11 00:45:16;;;;;;;18.90;4.50;;;16.90;53.20;;;;;;5107782;27;20083;-45
2024/01/11 00:47:42;;;;;;;23.77;4.57;;;16.70;53.70;;;;;;5123804;27;20103;-50
2024/01/11 00:50:09;;;;;;;31.38;5.93;;;16.60;54.20;;;;;;5126102;27;20072;-47
2024/01/11 00:52:36;;;;;;;34.53;7.40;;;16.40;54.80;;;;;;5126279;27;21697;-44
2024/01/11 00:55:02;;;;;;;37.50;6.03;;;16.20;55.20;;;;;;5126085;27;20060;-55
2024/01/11 00:57:29;;;;;;;33.83;6.55;;;16.10;55.80;;;;;;5107122;27;20696;-46
2024/01/11 00:59:55;;;;;;;81.35;8.88;;;16.00;56.10;;;;;;5126407;27;20088;-52
2024/01/11 01:02:21;;;;;;;44.30;6.55;;;15.90;57.10;;;;;;5126088;27;20128;-49
2024/01/11 01:04:48;;;;;;;35.85;5.70;;;15.80;57.00;;;;;;5127867;27;20201;-51
2024/01/11 01:07:14;;;;;;;28.95;6.20;;;15.80;57.20;;;;;;5126323;27;20082;-53
2024/01/11 01:09:41;;;;;;;57.28;6.88;;;15.70;57.90;;;;;;5126966;27;20111;-46
2024/01/11 01:12:07;;;;;;;43.60;7.70;;;15.70;58.70;;;;;;5126016;27;20444;-50
2024/01/11 01:14:34;;;;;;;41.58;7.40;;;15.70;59.70;;;;;;5123936;27;20067;-49
2024/01/11 01:17:00;;;;;;;42.83;7.75;;;15.60;60.40;;;;;;5124421;27;20068;-47
2024/01/11 01:19:27;;;;;;;47.15;7.53;;;15.50;61.30;;;;;;5125599;27;20068;-51
2024/01/11 01:21:53;;;;;;;44.80;6.90;;;15.50;63.30;;;;;;5126030;27;20079;-55
2024/01/11 01:24:19;;;;;;;57.33;6.78;;;15.50;63.80;;;;;;5126549;27;20078;-49
2024/01/11 01:26:46;;;;;;;63.90;11.15;;;15.40;64.60;;;;;;5126901;27;20067;-48
2024/01/11 01:29:12;;;;;;;47.60;6.53;;;15.40;65.40;;;;;;5125506;27;20104;-48
2024/01/11 01:31:39;;;;;;;27.35;5.47;;;15.40;66.40;;;;;;5107848;27;20080;-47
2024/01/11 01:34:07;;;;;;;33.58;5.10;;;15.40;66.80;;;;;;5127233;27;20103;-44
2024/01/11 01:36:33;;;;;;;34.92;5.72;;;15.40;66.60;;;;;;5128119;27;20072;-48
2024/01/11 01:38:59;;;;;;;59.83;6.53;;;15.40;66.90;;;;;;5128124;27;20110;-55
2024/01/11 01:41:26;;;;;;;27.40;5.00;;;15.30;67.00;;;;;;5127551;27;20157;-51
2024/01/11 01:43:52;;;;;;;15.75;2.97;;;15.40;66.60;;;;;;5123582;27;20067;-49
2024/01/11 01:46:23;;;;;;;11.88;3.80;;;15.40;65.40;;;;;;5126209;27;20097;-50
2024/01/11 01:48:52;;;;;;;18.77;3.72;;;15.40;65.10;;;;;;5103615;27;20471;-47
2024/01/11 01:51:18;;;;;;;19.70;4.57;;;15.40;65.50;;;;;;5108224;27;20187;-55
2024/01/11 01:53:45;;;;;;;12.88;4.90;;;15.20;66.40;;;;;;5126723;27;20537;-45
2024/01/11 01:56:13;;;;;;;26.08;5.35;;;15.00;66.70;;;;;;5123387;27;20240;-49
2024/01/11 01:58:39;;;;;;;32.35;5.45;;;14.80;67.90;;;;;;5125811;28;20087;-46
2024/01/11 02:01:06;;;;;;;22.95;5.25;;;14.80;68.70;;;;;;5107569;28;20453;-55
2024/01/11 02:03:35;;;;;;;32.38;5.53;;;14.80;69.10;;;;;;5125900;28;20080;-53
2024/01/11 02:06:04;;;;;;;26.83;5.68;;;14.70;69.70;;;;;;5124174;28;20074;-54
2024/01/11 02:08:31;;;;;;;28.48;5.68;;;14.90;70.00;;;;;;5126486;28;20111;-48
2024/01/11 02:11:00;;;;;;;55.45;7.32;;;14.90;70.20;;;;;;5124175;28;20568;-47
2024/01/11 02:13:27;;;;;;;34.15;7.05;;;14.90;70.60;;;;;;5127006;28;20533;-45
2024/01/11 02:15:54;;;;;;;31.20;6.90;;;14.80;71.40;;;;;;5127267;28;20159;-51
2024/01/11 02:18:20;;;;;;;70.47;9.45;;;14.80;71.80;;;;;;5127394;28;20076;-46
2024/01/11 02:20:47;;;;;;;209.63;14.25;;;14.80;72.40;;;;;;5126150;28;20079;-48
2024/01/11 02:23:17;;;;;;;104.57;11.68;;;14.70;73.10;;;;;;5107316;28;20200;-48
2024/01/11 02:25:44;;;;;;;431.00;29.73;;;14.50;74.00;;;;;;5123698;28;20120;-47
2024/01/11 02:28:11;;;;;;;166.32;16.08;;;14.40;75.00;;;;;;5127053;28;20570;-52
2024/01/11 02:30:37;;;;;;;61.03;9.18;;;14.40;75.90;;;;;;5123806;28;20072;-53
2024/01/11 02:33:05;;;;;;;43.28;9.63;;;14.30;77.00;;;;;;5126474;28;20126;-51
2024/01/11 02:35:32;;;;;;;259.73;19.83;;;14.40;78.20;;;;;;5125127;28;20128;-50
2024/01/11 02:38:00;;;;;;;418.13;31.20;;;14.30;78.50;;;;;;5123072;28;20091;-54
2024/01/11 02:40:27;;;;;;;529.38;40.50;;;14.20;79.80;;;;;;5125167;28;20068;-51
2024/01/11 02:42:53;;;;;;;347.52;27.00;;;14.10;80.80;;;;;;5122818;28;20086;-47
2024/01/11 02:45:20;;;;;;;393.83;28.65;;;14.00;81.70;;;;;;5123421;28;20108;-52
2024/01/11 02:47:46;;;;;;;379.52;30.02;;;14.00;83.50;;;;;;5126621;28;20146;-46
2024/01/11 02:50:13;;;;;;;128.93;14.05;;;14.00;84.20;;;;;;5105281;28;20079;-51
2024/01/11 02:52:39;;;;;;;88.03;12.60;;;14.00;86.20;;;;;;5123251;28;20106;-50
2024/01/11 02:55:06;;;;;;;426.88;35.85;;;14.00;87.20;;;;;;5123790;28;20186;-52
2024/01/11 02:57:33;;;;;;;119.75;13.23;;;14.00;88.10;;;;;;5123591;28;20084;-48
2024/01/11 02:59:59;;;;;;;152.75;14.52;;;14.00;89.60;;;;;;5124627;28;20162;-46
2024/01/11 03:02:26;;;;;;;523.25;32.58;;;14.00;90.30;;;;;;5106189;28;20444;-46
2024/01/11 03:04:52;;;;;;;377.63;26.85;;;14.00;90.80;;;;;;5124250;28;20064;-51
2024/01/11 03:07:18;;;;;;;;;;;14.00;91.30;;;;;;5127097;28;20082;-49
2024/01/11 03:09:45;;;;;;;45.28;9.00;;;14.00;91.50;;;;;;5126458;28;20025;-50
2024/01/11 03:12:11;;;;;;;131.68;15.75;;;13.90;92.00;;;;;;5124584;27;20173;-47
2024/01/11 03:14:38;;;;;;;46.17;9.70;;;13.90;92.40;;;;;;5127550;27;20072;-46
2024/01/11 03:17:05;;;;;;;23.80;7.72;;;14.00;92.80;;;;;;5110310;27;21222;-49
2024/01/11 03:19:31;;;;;;;23.52;6.90;;;14.00;93.30;;;;;;5111278;27;20084;-50
2024/01/11 03:21:58;;;;;;;34.13;8.57;;;14.10;93.70;;;;;;5126696;27;20083;-60
2024/01/11 03:24:24;;;;;;;64.22;10.27;;;14.00;94.10;;;;;;5128282;27;20564;-51
2024/01/11 03:26:51;;;;;;;41.80;12.43;;;14.00;94.50;;;;;;5129293;27;20108;-49
2024/01/11 03:29:17;;;;;;;46.60;13.63;;;13.90;94.70;;;;;;5128919;27;20446;-50
2024/01/11 03:31:44;;;;;;;42.10;13.52;;;13.90;95.10;;;;;;5130112;27;20103;-47
2024/01/11 03:34:11;;;;;;;34.75;12.80;;;13.80;95.40;;;;;;5109453;27;20076;-49
2024/01/11 03:36:37;;;;;;;38.72;10.85;;;13.70;95.60;;;;;;5128032;27;20103;-47
2024/01/11 03:39:04;;;;;;;34.83;8.00;;;13.70;95.90;;;;;;5126642;27;20072;-47
2024/01/11 03:41:30;;;;;;;36.42;8.10;;;13.60;96.30;;;;;;5127590;27;20076;-47
2024/01/11 03:43:57;;;;;;;35.58;8.45;;;13.60;96.60;;;;;;5128423;27;20085;-50
2024/01/11 03:46:23;;;;;;;35.50;8.27;;;13.50;96.90;;;;;;5126670;27;20072;-50
2024/01/11 03:48:50;;;;;;;36.97;12.77;;;13.40;97.00;;;;;;5127198;27;20619;-51
2024/01/11 03:51:16;;;;;;;50.08;12.07;;;13.30;97.20;;;;;;5127341;27;20914;-53
2024/01/11 03:53:43;;;;;;;46.45;11.90;;;13.20;97.70;;;;;;5127017;27;20091;-53
2024/01/11 03:56:10;;;;;;;43.05;12.93;;;13.20;97.90;;;;;;5128381;27;20155;-49
2024/01/11 03:58:39;;;;;;;40.95;11.75;;;13.20;98.10;;;;;;5109212;27;21760;-59
2024/01/11 04:01:07;;;;;;;52.08;12.27;;;13.10;98.40;;;;;;5108880;27;20155;-49
2024/01/11 04:03:33;;;;;;;43.17;11.50;;;13.00;98.80;;;;;;5126529;27;20071;-53
2024/01/11 04:06:00;;;;;;;47.75;10.35;;;13.00;99.00;;;;;;5125449;27;20071;-51
2024/01/11 04:08:26;;;;;;;30.33;9.60;;;13.00;99.20;;;;;;5125175;27;20148;-50
2024/01/11 04:10:53;;;;;;;31.27;9.52;;;12.90;99.20;;;;;;5127195;27;20564;-53
2024/01/11 04:13:19;;;;;;;32.78;9.15;;;12.80;99.60;;;;;;5126769;27;20193;-49
2024/01/11 04:15:46;;;;;;;31.52;9.20;;;12.70;99.90;;;;;;5123622;27;20083;-48
2024/01/11 04:18:13;;;;;;;28.95;12.77;;;12.80;99.90;;;;;;5127243;27;20175;-59
2024/01/11 04:20:40;;;;;;;30.42;12.20;;;12.90;99.90;;;;;;5127111;27;20090;-48
2024/01/11 04:23:06;;;;;;;32.92;12.63;;;12.80;99.90;;;;;;5126565;27;20116;-47
2024/01/11 04:25:33;;;;;;;35.08;12.75;;;12.80;99.90;;;;;;5106454;27;20434;-51
2024/01/11 04:27:59;;;;;;;36.97;12.45;;;12.80;99.90;;;;;;5125336;27;20114;-51
2024/01/11 04:30:26;;;;;;;34.83;12.75;;;12.80;99.90;;;;;;5125072;27;20079;-52
2024/01/11 04:32:52;;;;;;;34.03;9.55;;;12.80;99.90;;;;;;5125714;27;20501;-48
2024/01/11 04:35:19;;;;;;;24.30;11.98;;;12.70;99.90;;;;;;5126824;27;20121;-57
2024/01/11 04:37:45;;;;;;;32.30;8.55;;;12.80;99.90;;;;;;5127329;27;20095;-49
2024/01/11 04:40:12;;;;;;;20.42;8.18;;;12.80;99.90;;;;;;5125982;27;20067;-51
2024/01/11 04:42:38;;;;;;;29.55;8.73;;;12.70;99.90;;;;;;5124348;27;20072;-50
2024/01/11 04:45:05;;;;;;;30.85;9.35;;;12.70;99.90;;;;;;5123909;27;20076;-52
2024/01/11 04:47:32;;;;;;;28.83;10.05;;;12.60;99.90;;;;;;5106963;27;20108;-57
2024/01/11 04:49:58;;;;;;;27.35;10.40;;;12.70;99.90;;;;;;5126545;27;20095;-49
2024/01/11 04:52:25;;;;;;;24.67;9.68;;;12.60;99.90;;;;;;5107261;27;20115;-49
2024/01/11 04:54:52;;;;;;;23.05;8.85;;;12.50;99.90;;;;;;5125661;27;20072;-47
2024/01/11 04:57:19;;;;;;;27.10;9.85;;;12.40;99.90;;;;;;5123956;27;20068;-48
2024/01/11 04:59:45;;;;;;;;;;;12.40;99.90;;;;;;5124797;27;20098;-49
2024/01/11 05:02:11;;;;;;;30.60;11.93;;;12.30;99.90;;;;;;5126490;27;20092;-46
2024/01/11 05:04:38;;;;;;;35.70;11.93;;;12.30;99.90;;;;;;5124947;27;20084;-58
2024/01/11 05:07:04;;;;;;;28.15;11.13;;;12.30;99.90;;;;;;5127054;27;20209;-48
2024/01/11 05:09:31;;;;;;;28.98;12.15;;;12.30;99.90;;;;;;5126344;27;20549;-51
2024/01/11 05:11:57;;;;;;;30.23;11.85;;;12.20;99.90;;;;;;5124570;27;20083;-53
2024/01/11 05:14:24;;;;;;;31.23;11.43;;;12.20;99.90;;;;;;5124537;27;20409;-51
2024/01/11 05:16:51;;;;;;;27.63;11.57;;;12.20;99.90;;;;;;5126489;27;20131;-57
2024/01/11 05:19:18;;;;;;;28.65;11.95;;;12.20;99.90;;;;;;5126980;27;20075;-52
2024/01/11 05:21:45;;;;;;;24.80;11.13;;;12.10;99.90;;;;;;5126813;27;20087;-47
2024/01/11 05:24:11;;;;;;;30.65;11.85;;;12.00;99.90;;;;;;5125480;27;20142;-47
2024/01/11 05:26:38;;;;;;;35.75;11.48;;;12.00;99.90;;;;;;5126090;27;20083;-51
2024/01/11 05:29:05;;;;;;;30.42;12.40;;;11.90;99.90;;;;;;5124502;27;20099;-54
2024/01/11 05:31:31;;;;;;;33.03;11.88;;;11.90;99.90;;;;;;5126617;27;20077;-50
2024/01/11 05:33:58;;;;;;;31.83;12.85;;;11.90;99.90;;;;;;5122600;27;20068;-50
2024/01/11 05:36:24;;;;;;;27.80;13.05;;;11.70;99.90;;;;;;5124625;27;20076;-48
2024/01/11 05:38:51;;;;;;;29.90;13.38;;;11.70;99.90;;;;;;5121812;27;20136;-47
2024/01/11 05:41:17;;;;;;;34.50;14.20;;;11.70;99.90;;;;;;5123576;27;20064;-51
2024/01/11 05:43:44;;;;;;;29.23;13.75;;;11.70;99.90;;;;;;5124476;27;20111;-53
2024/01/11 05:46:10;;;;;;;38.20;14.73;;;11.60;99.90;;;;;;5124512;27;20162;-48
2024/01/11 05:48:37;;;;;;;25.23;14.88;;;11.50;99.90;;;;;;5105110;28;20196;-48
2024/01/11 05:51:04;;;;;;;37.33;17.17;;;11.50;99.90;;;;;;5126053;27;20169;-46
2024/01/11 05:53:33;;;;;;;33.17;15.68;;;11.60;99.90;;;;;;5123805;27;21281;-49
2024/01/11 05:55:59;;;;;;;47.22;17.73;;;11.50;99.90;;;;;;5125280;27;20742;-48
2024/01/11 05:58:26;;;;;;;46.53;20.13;;;11.50;99.90;;;;;;5127329;28;20064;-50
2024/01/11 06:00:52;;;;;;;40.83;18.17;;;11.40;99.90;;;;;;5107952;28;20072;-54
2024/01/11 06:03:19;;;;;;;43.58;17.23;;;11.40;99.90;;;;;;5125654;28;20068;-47
2024/01/11 06:05:45;;;;;;;32.85;17.63;;;11.30;99.90;;;;;;5125959;28;20097;-48
2024/01/11 06:08:11;;;;;;;;;;;11.30;99.90;;;;;;5127202;28;20111;-49
2024/01/11 06:10:38;;;;;;;37.40;15.32;;;11.30;99.90;;;;;;5127431;28;19960;-50
2024/01/11 06:13:04;;;;;;;31.30;16.98;;;11.30;99.90;;;;;;5126958;28;20101;-57
2024/01/11 06:15:31;;;;;;;35.65;18.27;;;11.20;99.90;;;;;;5125926;28;20144;-51
2024/01/11 06:17:58;;;;;;;34.67;16.58;;;11.20;99.90;;;;;;5124781;28;20178;-52
2024/01/11 06:20:24;;;;;;;37.85;17.92;;;11.20;99.90;;;;;;5125569;28;20102;-54
2024/01/11 06:22:51;;;;;;;44.00;17.65;;;11.20;99.90;;;;;;5125792;28;20117;-50
2024/01/11 06:25:18;;;;;;;24.90;14.57;;;11.10;99.90;;;;;;5126618;28;20102;-51
2024/01/11 06:27:46;;;;;;;31.70;16.00;;;11.10;99.90;;;;;;5125412;28;20091;-52
2024/01/11 06:30:13;;;;;;;34.45;16.52;;;11.00;99.90;;;;;;5107700;28;20149;-52
2024/01/11 06:32:39;;;;;;;38.45;17.75;;;11.00;99.90;;;;;;5126224;28;20481;-47
2024/01/11 06:35:06;;;;;;;26.90;14.65;;;10.90;99.90;;;;;;5123145;28;20125;-47
2024/01/11 06:37:33;;;;;;;30.45;17.33;;;10.90;99.90;;;;;;5126305;28;20095;-47
2024/01/11 06:39:59;;;;;;;33.78;17.40;;;10.90;99.90;;;;;;5107202;28;20120;-54
2024/01/11 06:42:26;;;;;;;38.83;17.58;;;10.90;99.90;;;;;;5125749;28;20114;-67
2024/01/11 06:44:52;;;;;;;31.10;15.55;;;11.20;99.90;;;;;;5126583;28;20244;-58
2024/01/11 06:47:19;;;;;;;37.38;15.50;;;11.50;99.90;;;;;;5126030;27;20107;-54
2024/01/11 06:49:45;;;;;;;51.38;23.67;;;11.50;99.90;;;;;;5111583;27;20138;-53
2024/01/11 06:52:12;;;;;;;38.05;19.58;;;11.90;99.90;;;;;;5109009;27;20071;-63
2024/01/11 06:54:40;;;;;;;41.22;22.08;;;12.00;99.90;;;;;;5127289;27;20129;-66
2024/01/11 06:57:07;;;;;;;26.30;12.50;;;11.90;99.90;;;;;;5110409;27;20072;-59
2024/01/11 06:59:34;;;;;;;25.90;10.95;;;12.20;99.90;;;;;;5128006;27;20068;-48
2024/01/11 07:02:00;;;;;;;52.22;27.45;;;12.50;99.90;;;;;;5128976;27;20459;-48
2024/01/11 07:04:27;;;;;;;28.58;9.45;;;12.80;99.90;;;;;;5127792;27;20068;-64
2024/01/11 07:06:53;;;;;;;31.08;10.88;;;12.80;99.90;;;;;;5130770;27;20083;-55
2024/01/11 07:09:20;;;;;;;33.50;12.25;;;13.10;99.90;;;;;;5129787;27;20107;-54
2024/01/11 07:11:46;;;;;;;25.75;11.52;;;13.20;99.90;;;;;;5128169;27;20099;-53
2024/01/11 07:14:13;;;;;;;26.42;10.07;;;13.30;99.90;;;;;;5129601;27;20433;-52
2024/01/11 07:16:39;;;;;;;31.63;9.82;;;13.10;99.90;;;;;;5129738;27;20148;-51
2024/01/11 07:19:06;;;;;;;26.58;8.15;;;13.10;99.90;;;;;;5127800;27;20084;-51
2024/01/11 07:21:32;;;;;;;28.15;7.55;;;13.40;99.90;;;;;;5129823;27;20076;-50
2024/01/11 07:23:59;;;;;;;23.45;7.05;;;13.50;99.90;;;;;;5130333;27;20185;-48
2024/01/11 07:26:26;;;;;;;18.88;6.50;;;13.20;99.90;;;;;;5129423;27;20131;-48
2024/01/11 07:28:57;;;;;;;24.67;6.93;;;13.20;99.90;;;;;;5128235;27;20095;-58
2024/01/11 07:31:23;;;;;;;21.17;6.63;;;13.40;99.90;;;;;;5128656;27;20169;-49
2024/01/11 07:33:50;;;;;;;20.60;6.55;;;13.60;99.10;;;;;;5129619;27;20109;-51
2024/01/11 07:36:17;;;;;;;29.35;6.28;;;13.40;99.30;;;;;;5129336;27;20167;-48
2024/01/11 07:38:44;;;;;;;26.73;6.10;;;13.20;99.20;;;;;;5126639;27;20174;-50
2024/01/11 07:41:11;;;;;;;18.50;6.00;;;13.20;99.40;;;;;;5129728;27;20148;-51
2024/01/11 07:43:37;;;;;;;18.13;5.75;;;13.10;99.20;;;;;;5110025;27;20083;-56
2024/01/11 07:46:05;;;;;;;14.38;3.78;;;13.20;99.30;;;;;;5130159;27;20094;-46
2024/01/11 07:48:32;;;;;;;18.33;5.25;;;13.30;98.40;;;;;;5126649;27;20226;-51
2024/01/11 07:50:59;;;;;;;19.48;10.93;;;13.50;97.80;;;;;;5130239;27;20137;-53
2024/01/11 07:53:28;;;;;;;20.95;9.25;;;13.60;97.80;;;;;;5129409;27;20083;-51
2024/01/11 07:55:55;;;;;;;20.85;4.90;;;13.40;97.90;;;;;;5129873;27;20087;-51
2024/01/11 07:58:21;;;;;;;12.85;4.68;;;13.70;97.30;;;;;;5128295;27;20159;-62
2024/01/11 08:00:48;;;;;;;20.13;7.35;;;13.60;97.10;;;;;;5128671;27;20100;-60
2024/01/11 08:03:15;;;;;;;22.58;8.00;;;13.40;97.30;;;;;;5130157;27;20506;-56
2024/01/11 08:05:44;;;;;;;17.30;7.28;;;13.10;97.80;;;;;;5130084;27;20072;-50
2024/01/11 08:08:10;;;;;;;20.27;5.68;;;13.10;97.80;;;;;;5129459;27;20075;-48
2024/01/11 08:10:37;;;;;;;21.58;5.93;;;13.10;97.70;;;;;;5130156;27;20109;-64
2024/01/11 08:13:03;;;;;;;18.50;5.07;;;13.30;97.40;;;;;;5127269;27;20525;-52
2024/01/11 08:15:30;;;;;;;13.35;3.78;;;13.20;96.90;;;;;;5110645;27;20087;-52
2024/01/11 08:17:57;;;;;;;13.13;2.42;;;13.30;96.60;;;;;;5127570;27;20090;-55
2024/01/11 08:20:23;;;;;;;21.02;2.60;;;13.50;95.20;;;;;;5127519;27;20132;-52
2024/01/11 08:22:50;;;;;;;17.42;2.50;;;13.80;93.90;;;;;;5128607;27;21530;-62
2024/01/11 08:25:17;;;;;;;18.17;2.75;;;14.00;93.30;;;;;;5129783;27;20103;-59
2024/01/11 08:27:44;;;;;;;17.25;5.57;;;14.30;92.80;;;;;;5127262;27;20068;-57
2024/01/11 08:30:12;;;;;;;17.70;6.45;;;14.20;92.10;;;;;;5126789;27;20099;-53
2024/01/11 08:32:39;;;;;;;23.67;7.72;;;14.00;91.90;;;;;;5127676;27;20103;-55
2024/01/11 08:35:06;;;;;;;25.92;8.90;;;13.80;91.50;;;;;;5107762;27;20122;-55
2024/01/11 08:37:33;;;;;;;23.77;8.63;;;13.50;91.70;;;;;;5127799;27;20100;-56
2024/01/11 08:39:59;;;;;;;17.92;7.43;;;13.30;92.10;;;;;;5129601;27;20072;-52
2024/01/11 08:42:26;;;;;;;25.63;7.93;;;13.30;92.70;;;;;;5128656;27;20076;-60
2024/01/11 08:44:52;;;;;;;16.25;6.18;;;13.30;92.90;;;;;;5127501;27;20103;-53
2024/01/11 08:47:19;;;;;;;18.80;6.22;;;13.10;92.80;;;;;;5127085;27;20605;-52
2024/01/11 08:49:45;;;;;;;16.80;6.13;;;12.90;93.10;;;;;;5128049;27;20214;-53
2024/01/11 08:52:12;;;;;;;11.70;5.40;;;12.90;93.60;;;;;;5128447;27;20103;-56
2024/01/11 08:54:38;;;;;;;16.92;7.10;;;12.80;93.60;;;;;;5128402;27;20075;-59
2024/01/11 08:57:05;;;;;;;13.32;3.05;;;12.60;94.00;;;;;;5127610;27;20101;-56
2024/01/11 08:59:32;;;;;;;14.13;2.20;;;12.60;94.10;;;;;;5128366;27;20083;-53
2024/01/11 09:01:59;;;;;;;7.68;2.10;;;13.60;92.30;;;;;;5128902;27;20075;-51
2024/01/11 09:04:28;;;;;;;11.95;2.03;;;13.90;91.50;;;;;;5128139;27;20076;-54
2024/01/11 09:06:55;;;;;;;42.60;3.42;;;14.00;91.00;;;;;;5128230;27;20067;-54
2024/01/11 09:09:22;;;;;;;24.15;2.72;;;14.20;90.50;;;;;;5125988;27;20468;-54
2024/01/11 09:11:49;;;;;;;19.75;2.20;;;14.80;89.60;;;;;;5126482;27;20076;-48
2024/01/11 09:14:16;;;;;;;18.20;1.88;;;14.70;88.40;;;;;;5127525;27;20083;-59
2024/01/11 09:16:44;;;;;;;12.85;1.88;;;14.60;88.60;;;;;;5128106;27;20079;-55
2024/01/11 09:19:11;;;;;;;10.43;1.92;;;14.90;88.10;;;;;;5126975;27;20535;-52
2024/01/11 09:21:37;;;;;;;7.20;2.05;;;14.90;87.90;;;;;;5127486;27;20160;-53
2024/01/11 09:24:04;;;;;;;12.05;1.75;;;14.80;88.30;;;;;;5127529;27;20079;-51
2024/01/11 09:26:30;;;;;;;10.73;1.85;;;14.70;88.60;;;;;;5128140;27;20082;-58
2024/01/11 09:28:57;;;;;;;10.32;2.10;;;14.70;88.60;;;;;;5127836;27;20147;-56
2024/01/11 09:31:24;;;;;;;8.43;1.42;;;14.60;88.30;;;;;;5125874;27;20124;-53
2024/01/11 09:33:50;;;;;;;10.52;1.70;;;14.70;88.20;;;;;;5127382;27;20072;-51
2024/01/11 09:36:17;;;;;;;10.25;1.98;;;14.70;88.30;;;;;;5126965;27;20083;-52
2024/01/11 09:38:43;;;;;;;9.57;1.92;;;14.70;88.10;;;;;;5128151;27;20067;-51
2024/01/11 09:41:13;;;;;;;13.00;2.17;;;14.60;88.70;;;;;;5126787;27;20559;-51
2024/01/11 09:43:42;;;;;;;15.27;1.70;;;14.60;88.90;;;;;;5124927;27;20067;-55
2024/01/11 09:46:11;;;;;;;9.77;1.77;;;14.60;89.30;;;;;;5128581;27;20072;-50
2024/01/11 09:48:44;;;;;;;8.88;2.00;;;14.60;89.60;;;;;;5127270;27;20648;-48
2024/01/11 09:51:11;;;;;;;8.40;1.73;;;14.60;89.80;;;;;;5127472;27;20526;-48
2024/01/11 09:53:39;;;;;;;14.30;2.08;;;14.50;90.00;;;;;;5105314;27;20473;-50
2024/01/11 09:56:10;;;;;;;11.60;1.80;;;14.60;90.40;;;;;;5125571;27;20080;-47
2024/01/11 09:58:37;;;;;;;11.48;2.30;;;14.60;90.40;;;;;;5126111;27;20264;-58
2024/01/11 10:01:07;;;;;;;13.25;1.98;;;14.60;90.60;;;;;;5124877;27;20071;-49
2024/01/11 10:03:33;;;;;;;12.00;1.90;;;14.60;90.80;;;;;;5127034;28;20063;-52
2024/01/11 10:06:03;;;;;;;12.18;1.88;;;14.60;90.90;;;;;;5107444;28;20076;-52
2024/01/11 10:08:31;;;;;;;16.58;2.22;;;14.60;91.10;;;;;;5127577;28;20099;-56
2024/01/11 10:10:58;;;;;;;17.92;2.35;;;14.60;91.10;;;;;;5108583;28;20089;-52
2024/01/11 10:13:32;;;;;;;36.38;2.42;;;14.70;91.10;;;;;;5126630;28;20076;-51
2024/01/11 10:16:13;;;;;;;16.38;1.95;;;14.80;91.20;;;;;;5127436;28;20082;-49
2024/01/11 10:18:40;;;;;;;20.35;2.25;;;14.70;91.00;;;;;;5123782;28;20594;-53
2024/01/11 10:21:06;;;;;;;17.98;2.60;;;14.80;90.90;;;;;;5125299;27;20135;-53
2024/01/11 10:23:37;;;;;;;20.75;1.83;;;14.90;90.80;;;;;;5129352;27;20067;-53
2024/01/11 10:26:03;;;;;;;34.17;2.90;;;14.90;90.80;;;;;;5130378;27;20182;-49
2024/01/11 10:28:30;;;;;;;15.57;1.90;;;14.90;90.70;;;;;;5131421;27;20099;-57
2024/01/11 10:30:57;;;;;;;10.77;2.15;;;14.90;90.80;;;;;;5131427;27;20529;-52
2024/01/11 10:33:23;;;;;;;21.50;2.03;;;14.90;90.70;;;;;;5129969;27;20076;-54
2024/01/11 10:35:50;;;;;;;21.17;3.10;;;15.00;91.00;;;;;;5130928;27;20071;-52
2024/01/11 10:38:18;;;;;;;25.05;3.00;;;14.90;90.80;;;;;;5129305;27;20079;-50
2024/01/11 10:40:44;;;;;;;29.17;2.95;;;15.10;90.70;;;;;;5131582;27;20083;-53
2024/01/11 10:43:13;;;;;;;24.40;2.58;;;15.10;90.70;;;;;;5131770;27;20470;-50
2024/01/11 10:45:39;;;;;;;52.65;3.80;;;15.00;90.70;;;;;;5130238;27;20125;-57
2024/01/11 10:48:16;;;;;;;55.40;3.85;;;15.10;90.50;;;;;;5111938;27;20557;-48
2024/01/11 10:50:49;;;;;;;47.92;4.65;;;15.10;90.40;;;;;;5131667;27;20068;-55
2024/01/11 10:53:32;;;;;;;40.03;2.97;;;15.20;90.30;;;;;;5129141;27;20151;-62
2024/01/11 10:56:00;;;;;;;140.63;8.52;;;15.10;90.40;;;;;;5126982;27;20075;-48
2024/01/11 10:58:27;;;;;;;53.13;4.18;;;15.10;90.40;;;;;;5130197;27;20418;-49
2024/01/11 11:00:55;;;;;;;61.35;4.53;;;15.10;90.40;;;;;;5130908;27;20079;-55
2024/01/11 11:03:24;;;;;;;43.45;4.43;;;15.10;90.60;;;;;;5129753;27;20133;-55
2024/01/11 11:05:55;;;;;;;44.63;3.45;;;15.10;90.70;;;;;;5130426;27;20080;-56
2024/01/11 11:08:26;;;;;;;53.28;3.55;;;15.20;91.00;;;;;;5129440;27;20570;-54
2024/01/11 11:11:05;;;;;;;30.25;3.00;;;15.20;91.10;;;;;;5131323;27;20076;-51
2024/01/11 11:13:32;;;;;;;21.25;2.38;;;15.10;91.40;;;;;;5128850;27;20145;-51
2024/01/11 11:15:59;;;;;;;18.25;2.80;;;15.10;91.50;;;;;;5129777;27;20064;-46
2024/01/11 11:18:25;;;;;;;27.60;2.22;;;15.00;91.60;;;;;;5130548;27;20163;-48
2024/01/11 11:20:54;;;;;;;14.82;1.65;;;15.00;91.60;;;;;;5128806;27;20068;-55
2024/01/11 11:23:20;;;;;;;13.43;1.70;;;15.10;91.60;;;;;;5109695;27;20071;-47
2024/01/11 11:25:48;;;;;;;9.00;2.10;;;15.00;91.90;;;;;;5130355;27;20088;-54
2024/01/11 11:28:16;;;;;;;8.32;1.65;;;15.10;92.00;;;;;;5127284;27;20076;-50
2024/01/11 11:30:51;;;;;;;7.80;1.67;;;15.00;92.10;;;;;;5131098;27;20079;-53
2024/01/11 11:33:26;;;;;;;6.82;1.45;;;15.00;92.40;;;;;;5127503;27;20076;-51
2024/01/11 11:35:58;;;;;;;6.68;1.38;;;14.90;92.70;;;;;;5128227;27;20083;-66
2024/01/11 11:38:31;;;;;;;6.13;1.00;;;14.90;92.90;;;;;;5127795;27;20072;-55
2024/01/11 11:41:00;;;;;;;10.63;1.52;;;14.90;92.80;;;;;;5130231;27;20170;-49
2024/01/11 11:43:28;;;;;;;5.72;1.50;;;15.00;92.80;;;;;;5130306;27;20076;-50
2024/01/11 11:45:55;;;;;;;8.68;1.30;;;15.00;92.90;;;;;;5128317;27;20449;-48
2024/01/11 11:48:31;;;;;;;8.00;1.20;;;15.00;92.90;;;;;;5127684;27;20119;-58
2024/01/11 11:51:02;;;;;;;5.63;1.48;;;15.00;93.20;;;;;;5130188;27;20071;-56
2024/01/11 11:53:36;;;;;;;6.13;1.77;;;15.00;93.20;;;;;;5129778;27;20209;-52
2024/01/11 11:56:03;;;;;;;6.93;1.20;;;14.90;93.50;;;;;;5128848;27;20082;-49
2024/01/11 11:58:32;;;;;;;15.20;8.40;;;14.80;93.60;;;;;;5128288;27;20079;-57
2024/01/11 12:01:00;;;;;;;8.50;1.40;;;14.80;93.90;;;;;;5128859;27;20260;-53
2024/01/11 12:03:37;;;;;;;6.20;1.00;;;14.80;94.00;;;;;;5111756;27;20094;-55
2024/01/11 12:06:10;;;;;;;5.00;0.80;;;14.80;94.20;;;;;;5128682;27;20079;-55
2024/01/11 12:08:37;;;;;;;6.07;1.00;;;14.80;94.40;;;;;;5128744;27;20104;-54
2024/01/11 12:11:05;;;;;;;26.13;1.40;;;14.70;94.50;;;;;;5126850;27;20638;-51
2024/01/11 12:13:33;;;;;;;27.38;1.90;;;14.70;94.50;;;;;;5128946;27;20118;-52
2024/01/11 12:16:00;;;;;;;18.60;1.70;;;14.80;94.30;;;;;;5129256;27;20071;-53
2024/01/11 12:18:27;;;;;;;36.05;2.38;;;15.00;94.10;;;;;;5127242;27;20091;-54
2024/01/11 12:20:54;;;;;;;43.33;3.58;;;15.00;93.80;;;;;;5122237;27;20148;-51
2024/01/11 12:23:22;;;;;;;64.35;4.05;;;15.10;93.50;;;;;;5127867;27;20068;-61
2024/01/11 12:25:49;;;;;;;152.43;7.70;;;15.10;93.40;;;;;;5129009;27;20118;-52
2024/01/11 12:28:16;;;;;;;245.02;11.25;;;15.10;93.20;;;;;;5129134;27;20201;-48
2024/01/11 12:30:45;;;;;;;203.90;11.95;;;15.10;93.10;;;;;;5128766;27;20088;-49
2024/01/11 12:33:13;;;;;;;199.70;12.25;;;15.10;92.70;;;;;;5130022;27;20657;-53
2024/01/11 12:35:40;;;;;;;154.77;11.40;;;15.20;92.40;;;;;;5128128;27;20083;-51